Time;durP1;ratioP1;P1;durP2;ratioP2;P2;SDS_P1;SDS_P2;PMS_P1;PMS_P2;Temp;Humidity;BMP_temperature;BMP_pressure;BME280_temperature;BME280_humidity;BME280_pressure;Samples;Min_cycle;Max_cycle;Signal;HPM_P1;HPM_P2
2023/01/07 00:01:31;;;;;;;33.78;29.52;;;10.10;99.90;;;;;;5140896;27;20363;-81
2023/01/07 00:03:58;;;;;;;33.22;29.67;;;10.10;99.90;;;;;;5115028;28;20593;-80
2023/01/07 00:06:31;;;;;;;32.10;28.65;;;10.10;99.90;;;;;;5100721;28;20223;-80
2023/01/07 00:08:57;;;;;;;32.05;28.58;;;10.20;99.90;;;;;;5127630;28;20087;-79
2023/01/07 00:11:32;;;;;;;33.80;29.52;;;10.20;99.90;;;;;;5110645;28;20031;-81
2023/01/07 00:13:59;;;;;;;32.30;28.80;;;10.20;99.90;;;;;;5125734;28;20027;-80
2023/01/07 00:16:28;;;;;;;33.78;30.17;;;10.20;99.90;;;;;;5088839;28;20108;-79
2023/01/07 00:18:56;;;;;;;32.97;29.27;;;10.20;99.90;;;;;;5099060;28;20042;-79
2023/01/07 00:21:23;;;;;;;32.42;28.92;;;10.20;99.90;;;;;;5132431;27;20046;-80
2023/01/07 00:23:56;;;;;;;33.53;29.88;;;10.30;99.90;;;;;;5135558;27;20047;-79
2023/01/07 00:26:24;;;;;;;35.58;30.10;;;10.30;99.90;;;;;;5110445;28;20116;-79
2023/01/07 00:28:51;;;;;;;32.58;29.20;;;10.30;99.90;;;;;;5122803;28;20042;-80
2023/01/07 00:31:18;;;;;;;36.40;29.42;;;10.30;99.90;;;;;;5105858;28;20522;-79
2023/01/07 00:33:50;;;;;;;33.78;29.92;;;10.40;99.90;;;;;;5092056;28;20412;-80
2023/01/07 00:36:18;;;;;;;33.28;29.70;;;10.40;99.90;;;;;;5111480;28;20039;-80
2023/01/07 00:38:43;;;;;;;34.15;30.55;;;10.40;99.90;;;;;;5122521;28;20369;-80
2023/01/07 00:41:09;;;;;;;32.97;29.23;;;10.40;99.90;;;;;;5102212;28;20044;-79
2023/01/07 00:43:35;;;;;;;33.10;29.58;;;10.40;99.90;;;;;;5118986;28;20507;-80
2023/01/07 00:46:01;;;;;;;33.15;29.15;;;10.50;99.90;;;;;;5109108;28;20035;-81
2023/01/07 00:48:26;;;;;;;33.17;29.60;;;10.40;99.90;;;;;;5097547;28;20123;-81
2023/01/07 00:50:53;;;;;;;33.35;29.83;;;10.40;99.90;;;;;;5092699;28;20040;-80
2023/01/07 00:53:19;;;;;;;34.53;30.80;;;10.50;99.90;;;;;;5106975;28;20039;-80
2023/01/07 00:55:47;;;;;;;34.25;30.38;;;10.60;99.90;;;;;;5105026;28;20096;-80
2023/01/07 00:58:21;;;;;;;36.20;31.95;;;10.50;99.90;;;;;;5101509;27;20043;-80
2023/01/07 01:00:47;;;;;;;34.67;30.98;;;10.50;99.90;;;;;;5143586;27;20047;-80
2023/01/07 01:03:13;;;;;;;35.35;31.05;;;10.50;99.90;;;;;;5124668;27;20110;-80
2023/01/07 01:05:38;;;;;;;35.35;30.73;;;10.60;99.90;;;;;;5088500;27;20455;-80
2023/01/07 01:08:05;;;;;;;37.22;31.60;;;10.60;99.90;;;;;;5129936;27;20142;-79
2023/01/07 01:10:31;;;;;;;36.88;32.60;;;10.60;99.90;;;;;;5127230;27;20054;-80
2023/01/07 01:12:57;;;;;;;38.40;32.95;;;10.60;99.90;;;;;;5119347;27;20096;-80
2023/01/07 01:15:23;;;;;;;38.05;33.15;;;10.60;99.90;;;;;;5096262;27;20449;-81
2023/01/07 01:17:50;;;;;;;38.90;33.42;;;10.60;99.90;;;;;;5108605;28;20383;-80
2023/01/07 01:20:17;;;;;;;36.67;32.67;;;10.60;99.90;;;;;;5133903;27;20066;-79
2023/01/07 01:22:43;;;;;;;39.05;33.30;;;10.60;99.90;;;;;;5135796;27;20503;-79
2023/01/07 01:25:10;;;;;;;38.15;33.97;;;10.70;99.90;;;;;;5127238;27;20111;-79
2023/01/07 01:27:36;;;;;;;39.33;34.53;;;10.60;99.90;;;;;;5111445;27;20078;-81
2023/01/07 01:30:01;;;;;;;36.67;32.78;;;10.70;99.90;;;;;;5120841;27;20090;-80
2023/01/07 01:32:28;;;;;;;40.65;35.28;;;10.70;99.90;;;;;;5103970;27;20043;-80
2023/01/07 01:34:53;;;;;;;40.55;34.63;;;10.70;99.90;;;;;;5122913;27;20062;-81
2023/01/07 01:37:19;;;;;;;38.67;34.67;;;10.70;99.90;;;;;;5105301;27;20077;-81
2023/01/07 01:39:45;;;;;;;38.42;33.95;;;10.70;99.90;;;;;;5102091;27;20043;-80
2023/01/07 01:42:24;;;;;;;37.95;33.85;;;10.70;99.90;;;;;;5099437;27;20035;-80
2023/01/07 01:44:55;;;;;;;37.75;33.75;;;10.70;99.90;;;;;;5096439;27;20047;-80
2023/01/07 01:47:50;;;;;;;36.55;32.70;;;10.70;99.90;;;;;;5123287;27;20028;-80
2023/01/07 01:50:21;;;;;;;35.10;31.50;;;10.70;99.90;;;;;;5090031;27;20095;-80
2023/01/07 01:52:59;;;;;;;35.22;31.63;;;10.70;99.90;;;;;;5102168;27;20046;-80
2023/01/07 01:55:31;;;;;;;35.55;31.92;;;10.70;99.90;;;;;;5135324;27;20360;-80
2023/01/07 01:58:01;;;;;;;34.78;31.17;;;10.70;99.90;;;;;;5127557;27;20046;-80
2023/01/07 02:00:28;;;;;;;35.17;31.63;;;10.80;99.90;;;;;;5108118;27;20081;-80
2023/01/07 02:02:56;;;;;;;34.38;30.77;;;10.80;99.90;;;;;;5101180;27;20131;-80
2023/01/07 02:05:29;;;;;;;34.22;30.73;;;10.70;99.90;;;;;;5136878;27;20118;-80
2023/01/07 02:07:55;;;;;;;32.70;29.55;;;10.80;99.90;;;;;;5098929;27;20067;-80
2023/01/07 02:10:23;;;;;;;34.17;30.77;;;10.80;99.90;;;;;;5098895;28;20112;-80
2023/01/07 02:13:19;;;;;;;33.55;30.05;;;10.80;99.90;;;;;;5102979;27;20063;-79
2023/01/07 02:16:07;;;;;;;33.90;30.63;;;10.80;99.90;;;;;;5083587;28;20086;-80
2023/01/07 02:18:54;;;;;;;34.47;30.98;;;10.80;99.90;;;;;;5101481;27;20114;-81
2023/01/07 02:21:29;;;;;;;33.38;30.08;;;10.70;99.90;;;;;;5099851;28;20043;-80
2023/01/07 02:24:39;;;;;;;33.10;29.77;;;10.70;99.90;;;;;;5101335;28;20130;-82
2023/01/07 02:27:17;;;;;;;33.92;30.42;;;10.80;99.90;;;;;;5086112;27;20087;-82
2023/01/07 02:30:03;;;;;;;34.72;31.23;;;10.80;99.90;;;;;;5130003;27;20617;-81
2023/01/07 02:32:35;;;;;;;33.95;30.52;;;10.80;99.90;;;;;;5104581;27;20035;-81
2023/01/07 02:35:18;;;;;;;32.78;29.42;;;10.70;99.90;;;;;;5127765;27;20043;-82
2023/01/07 02:37:52;;;;;;;34.80;31.40;;;10.70;99.90;;;;;;5118891;27;20047;-81
2023/01/07 02:40:27;;;;;;;32.75;29.25;;;10.70;99.90;;;;;;5119416;27;20039;-81
2023/01/07 02:43:15;;;;;;;32.15;28.98;;;10.70;99.90;;;;;;5100132;28;20043;-82
2023/01/07 02:45:51;;;;;;;32.63;29.48;;;10.80;99.90;;;;;;5105933;27;20039;-82
2023/01/07 02:48:20;;;;;;;31.52;28.35;;;10.80;99.90;;;;;;5104493;28;20383;-83
2023/01/07 02:50:45;;;;;;;30.80;27.90;;;10.80;99.90;;;;;;5127104;27;20054;-83
2023/01/07 02:53:16;;;;;;;31.52;28.52;;;10.80;99.90;;;;;;5135355;27;20545;-83
2023/01/07 02:55:56;;;;;;;;;;;10.80;99.90;;;;;;5102113;27;20035;-83
2023/01/07 02:58:44;;;;;;;30.98;27.98;;;10.80;99.90;;;;;;5107549;27;19915;-83
2023/01/07 03:01:31;;;;;;;30.27;27.40;;;10.80;99.90;;;;;;5104858;27;20047;-84
2023/01/07 03:04:17;;;;;;;30.48;27.48;;;10.80;99.90;;;;;;5121787;27;20918;-83
2023/01/07 03:07:13;;;;;;;30.35;27.48;;;10.80;99.90;;;;;;5105207;27;20057;-84
2023/01/07 03:10:03;;;;;;;29.92;26.98;;;10.70;99.90;;;;;;5099694;27;20405;-84
2023/01/07 03:12:35;;;;;;;28.70;25.90;;;10.70;99.90;;;;;;5086939;27;20047;-85
2023/01/07 03:15:15;;;;;;;29.52;26.58;;;10.70;99.90;;;;;;5125960;27;20085;-84
2023/01/07 03:17:52;;;;;;;29.05;26.15;;;10.70;99.90;;;;;;5095357;28;20047;-81
2023/01/07 03:20:21;;;;;;;28.70;26.02;;;10.70;99.90;;;;;;5103826;28;20390;-82
2023/01/07 03:22:48;;;;;;;29.70;26.65;;;10.70;99.90;;;;;;5117415;27;20403;-84
2023/01/07 03:25:16;;;;;;;28.27;25.33;;;10.70;99.90;;;;;;5107133;28;20032;-82
2023/01/07 03:27:45;;;;;;;29.65;26.55;;;10.70;99.90;;;;;;5096704;27;20115;-83
2023/01/07 03:30:14;;;;;;;28.02;25.13;;;10.70;99.90;;;;;;5100155;27;20095;-82
2023/01/07 03:32:59;;;;;;;28.65;25.88;;;10.70;99.90;;;;;;5105721;27;20046;-82
2023/01/07 03:35:27;;;;;;;28.02;25.23;;;10.70;99.90;;;;;;5101040;28;20047;-82
2023/01/07 03:37:54;;;;;;;26.83;24.23;;;10.60;99.90;;;;;;5128060;27;20035;-82
2023/01/07 03:40:20;;;;;;;26.63;23.92;;;10.70;99.90;;;;;;5095928;28;20054;-82
2023/01/07 03:42:47;;;;;;;27.20;24.60;;;10.70;99.90;;;;;;5102646;28;20061;-82
2023/01/07 03:45:24;;;;;;;26.65;24.00;;;10.70;99.90;;;;;;5101597;28;20043;-82
2023/01/07 03:47:52;;;;;;;25.90;23.33;;;10.70;99.90;;;;;;5104994;28;20043;-82
2023/01/07 03:50:18;;;;;;;27.35;24.55;;;10.70;99.90;;;;;;5100143;28;20043;-82
2023/01/07 03:52:45;;;;;;;26.00;23.40;;;10.70;99.90;;;;;;5133629;27;20099;-82
2023/01/07 03:55:10;;;;;;;25.70;23.10;;;10.70;99.90;;;;;;5107468;28;20057;-82
2023/01/07 03:57:36;;;;;;;24.98;22.65;;;10.60;99.90;;;;;;5110018;28;20047;-82
2023/01/07 04:00:05;;;;;;;25.15;22.48;;;10.60;99.90;;;;;;5127285;27;20104;-82
2023/01/07 04:02:31;;;;;;;23.88;21.42;;;10.60;99.90;;;;;;5132826;27;20089;-83
2023/01/07 04:04:56;;;;;;;24.77;22.35;;;10.60;99.90;;;;;;5107731;28;20035;-83
2023/01/07 04:07:22;;;;;;;25.30;22.83;;;10.60;99.90;;;;;;5104096;28;20118;-83
2023/01/07 04:09:49;;;;;;;24.52;22.13;;;10.50;99.90;;;;;;5123587;28;20433;-83
2023/01/07 04:12:15;;;;;;;25.70;23.10;;;10.50;99.90;;;;;;5096658;28;20550;-82
2023/01/07 04:14:41;;;;;;;23.77;21.38;;;10.50;99.90;;;;;;5084040;28;20051;-84
2023/01/07 04:17:06;;;;;;;24.17;21.85;;;10.50;99.90;;;;;;5103228;28;20046;-83
2023/01/07 04:19:32;;;;;;;25.55;22.95;;;10.50;99.90;;;;;;5108432;28;20126;-83
2023/01/07 04:21:58;;;;;;;23.83;21.52;;;10.50;99.90;;;;;;5095762;28;20039;-83
2023/01/07 04:24:23;;;;;;;23.23;20.92;;;10.50;99.90;;;;;;5091042;28;20047;-83
2023/01/07 04:26:49;;;;;;;24.20;21.83;;;10.50;99.90;;;;;;5118603;28;20050;-83
2023/01/07 04:29:15;;;;;;;22.50;20.25;;;10.50;99.90;;;;;;5130704;27;20111;-82
2023/01/07 04:31:40;;;;;;;21.95;19.85;;;10.60;99.90;;;;;;5128705;27;20095;-83
2023/01/07 04:34:06;;;;;;;22.73;20.52;;;10.60;99.90;;;;;;5096569;27;20136;-83
2023/01/07 04:36:32;;;;;;;22.73;20.45;;;10.60;99.90;;;;;;5115399;27;20046;-82
2023/01/07 04:38:57;;;;;;;21.60;19.15;;;10.50;99.90;;;;;;5102375;27;20031;-83
2023/01/07 04:41:23;;;;;;;21.85;19.52;;;10.50;99.90;;;;;;5101230;27;20283;-83
2023/01/07 04:43:48;;;;;;;21.83;19.63;;;10.50;99.90;;;;;;5102056;28;20038;-83
2023/01/07 04:46:14;;;;;;;23.60;21.20;;;10.50;99.90;;;;;;5130730;27;20455;-82
2023/01/07 04:48:40;;;;;;;22.83;20.42;;;10.50;99.90;;;;;;5129018;27;20444;-83
2023/01/07 04:51:05;;;;;;;22.10;19.85;;;10.50;99.90;;;;;;5120757;27;20038;-82
2023/01/07 04:53:31;;;;;;;20.90;18.73;;;10.50;99.90;;;;;;5102402;27;20520;-82
2023/01/07 04:55:57;;;;;;;22.63;19.55;;;10.50;99.90;;;;;;5096545;27;20087;-82
2023/01/07 04:58:23;;;;;;;20.35;18.27;;;10.50;99.90;;;;;;5105651;27;20039;-82
2023/01/07 05:00:50;;;;;;;19.73;17.65;;;10.50;99.90;;;;;;5118266;27;20496;-82
2023/01/07 05:03:16;;;;;;;21.08;18.95;;;10.40;99.90;;;;;;5105652;27;20067;-83
2023/01/07 05:05:41;;;;;;;19.92;17.80;;;10.50;99.90;;;;;;5098128;27;20082;-83
2023/01/07 05:08:07;;;;;;;19.73;17.65;;;10.50;99.90;;;;;;5116822;27;20103;-82
2023/01/07 05:10:32;;;;;;;17.98;16.15;;;10.50;99.90;;;;;;5105511;27;20039;-81
2023/01/07 05:12:58;;;;;;;19.40;17.40;;;10.50;99.90;;;;;;5105034;27;20111;-82
2023/01/07 05:15:24;;;;;;;19.27;17.25;;;10.50;99.90;;;;;;5118358;27;20728;-82
2023/01/07 05:17:49;;;;;;;19.58;17.58;;;10.50;99.90;;;;;;5102691;27;20039;-81
2023/01/07 05:20:15;;;;;;;18.15;16.23;;;10.50;99.90;;;;;;5127864;27;20036;-82
2023/01/07 05:22:41;;;;;;;18.15;16.33;;;10.40;99.90;;;;;;5092246;27;20050;-82
2023/01/07 05:25:06;;;;;;;18.15;16.25;;;10.50;99.90;;;;;;5110235;27;20104;-82
2023/01/07 05:27:32;;;;;;;17.52;15.73;;;10.50;99.90;;;;;;5100780;27;20031;-82
2023/01/07 05:29:58;;;;;;;17.38;15.48;;;10.50;99.90;;;;;;5111341;27;20097;-82
2023/01/07 05:32:23;;;;;;;17.83;15.68;;;10.50;99.90;;;;;;5123481;27;20043;-82
2023/01/07 05:34:49;;;;;;;17.30;15.27;;;10.50;99.90;;;;;;5113197;27;20376;-82
2023/01/07 05:37:14;;;;;;;17.33;15.15;;;10.50;99.90;;;;;;5110439;27;20047;-82
2023/01/07 05:39:40;;;;;;;18.77;15.90;;;10.50;99.90;;;;;;5123581;27;20131;-83
2023/01/07 05:42:06;;;;;;;16.98;15.27;;;10.50;99.90;;;;;;5109234;27;20042;-84
2023/01/07 05:44:31;;;;;;;15.95;14.35;;;10.50;99.90;;;;;;5105952;27;20079;-81
2023/01/07 05:46:57;;;;;;;17.05;15.25;;;10.50;99.90;;;;;;5102878;27;20046;-83
2023/01/07 05:49:23;;;;;;;16.73;14.98;;;10.50;99.90;;;;;;5100952;27;20044;-82
2023/01/07 05:51:48;;;;;;;16.25;14.55;;;10.50;99.90;;;;;;5105992;28;20140;-83
2023/01/07 05:54:14;;;;;;;17.02;15.13;;;10.50;99.90;;;;;;5127307;27;20456;-83
2023/01/07 05:56:40;;;;;;;15.65;14.00;;;10.50;99.90;;;;;;5116811;27;20039;-84
2023/01/07 05:59:05;;;;;;;15.98;14.05;;;10.50;99.90;;;;;;5093734;27;20387;-83
2023/01/07 06:01:31;;;;;;;15.70;14.10;;;10.50;99.90;;;;;;5140620;27;20067;-83
2023/01/07 06:03:57;;;;;;;15.93;14.15;;;10.50;99.90;;;;;;5124991;27;20043;-82
2023/01/07 06:06:22;;;;;;;16.60;14.90;;;10.50;99.90;;;;;;5102425;27;20114;-82
2023/01/07 06:08:48;;;;;;;15.65;13.95;;;10.40;99.90;;;;;;5100364;28;20039;-82
2023/01/07 06:11:14;;;;;;;15.63;13.90;;;10.40;99.90;;;;;;5087272;27;20043;-82
2023/01/07 06:13:39;;;;;;;17.45;14.65;;;10.40;99.90;;;;;;5095653;27;20034;-82
2023/01/07 06:16:08;;;;;;;14.65;12.65;;;10.40;99.90;;;;;;5096806;27;20373;-80
2023/01/07 06:18:34;;;;;;;14.10;12.68;;;10.40;99.90;;;;;;5103654;27;20039;-81
2023/01/07 06:21:01;;;;;;;14.27;12.77;;;10.40;99.90;;;;;;5132306;27;20051;-81
2023/01/07 06:23:27;;;;;;;14.30;12.82;;;10.40;99.90;;;;;;5099739;28;20087;-84
2023/01/07 06:25:53;;;;;;;15.18;12.80;;;10.40;99.90;;;;;;5098192;28;20044;-84
2023/01/07 06:28:18;;;;;;;14.77;12.38;;;10.40;99.90;;;;;;5099259;28;20036;-84
2023/01/07 06:30:45;;;;;;;14.30;11.95;;;10.40;99.90;;;;;;5098471;28;20082;-85
2023/01/07 06:33:12;;;;;;;14.55;12.38;;;10.50;99.90;;;;;;5109106;27;20031;-83
2023/01/07 06:35:37;;;;;;;14.88;12.00;;;10.40;99.90;;;;;;5102229;28;20035;-84
2023/01/07 06:38:03;;;;;;;12.75;11.13;;;10.40;99.90;;;;;;5096312;28;20480;-83
2023/01/07 06:40:29;;;;;;;13.05;11.63;;;10.40;99.90;;;;;;5092132;28;20472;-81
2023/01/07 06:42:55;;;;;;;11.75;10.45;;;10.40;99.90;;;;;;5092204;28;20035;-82
2023/01/07 06:45:21;;;;;;;13.48;11.27;;;10.50;99.90;;;;;;5108989;28;20028;-83
2023/01/07 06:47:47;;;;;;;13.30;11.40;;;10.40;99.90;;;;;;5097911;28;20080;-83
2023/01/07 06:50:13;;;;;;;13.18;11.10;;;10.40;99.90;;;;;;5103521;28;20046;-84
2023/01/07 06:52:39;;;;;;;13.65;11.25;;;10.40;99.90;;;;;;5095025;28;20486;-83
2023/01/07 06:55:05;;;;;;;12.75;10.73;;;10.40;99.90;;;;;;5103362;28;20047;-84
2023/01/07 06:57:31;;;;;;;12.32;10.20;;;10.50;99.90;;;;;;5104703;28;20114;-84
2023/01/07 06:59:57;;;;;;;11.43;9.80;;;10.40;99.90;;;;;;5099295;28;20586;-83
2023/01/07 07:02:25;;;;;;;11.77;10.48;;;10.50;99.90;;;;;;5100248;28;20111;-85
2023/01/07 07:04:51;;;;;;;12.45;10.07;;;10.50;99.90;;;;;;5097127;28;20042;-84
2023/01/07 07:07:16;;;;;;;12.00;9.85;;;10.50;99.90;;;;;;5102262;28;20032;-83
2023/01/07 07:09:42;;;;;;;14.20;9.52;;;10.50;99.90;;;;;;5105607;28;20047;-80
2023/01/07 07:12:08;;;;;;;11.10;9.45;;;10.50;99.90;;;;;;5101376;28;20031;-86
2023/01/07 07:14:34;;;;;;;12.63;9.13;;;10.40;99.90;;;;;;5104701;28;20395;-86
2023/01/07 07:17:00;;;;;;;11.13;9.10;;;10.40;99.90;;;;;;5097996;28;20077;-83
2023/01/07 07:19:26;;;;;;;13.20;9.20;;;10.40;99.90;;;;;;5103920;28;20510;-83
2023/01/07 07:21:51;;;;;;;11.18;9.27;;;10.40;99.90;;;;;;5100287;28;20052;-82
2023/01/07 07:24:17;;;;;;;11.13;9.07;;;10.40;99.90;;;;;;5107349;28;20066;-82
2023/01/07 07:26:42;;;;;;;11.07;8.90;;;10.40;99.90;;;;;;5106623;28;20036;-83
2023/01/07 07:29:09;;;;;;;10.52;8.32;;;10.40;99.90;;;;;;5103651;28;20047;-83
2023/01/07 07:31:35;;;;;;;11.82;8.18;;;10.40;99.90;;;;;;5093643;28;20112;-83
2023/01/07 07:34:01;;;;;;;10.27;8.10;;;10.40;99.90;;;;;;5104192;28;20064;-82
2023/01/07 07:36:27;;;;;;;11.15;8.00;;;10.40;99.90;;;;;;5105519;28;20139;-82
2023/01/07 07:38:52;;;;;;;11.05;7.75;;;10.30;99.90;;;;;;5106491;28;20047;-82
2023/01/07 07:41:18;;;;;;;10.30;8.52;;;10.30;99.90;;;;;;5098435;28;20040;-82
2023/01/07 07:43:43;;;;;;;10.43;7.97;;;10.30;99.90;;;;;;5096527;28;20405;-79
2023/01/07 07:46:09;;;;;;;9.75;7.45;;;10.30;99.90;;;;;;5105260;28;20035;-82
2023/01/07 07:48:35;;;;;;;11.30;7.65;;;10.20;99.90;;;;;;5081225;28;20039;-82
2023/01/07 07:51:01;;;;;;;9.63;7.38;;;10.20;99.90;;;;;;5098829;28;20403;-81
2023/01/07 07:53:26;;;;;;;9.88;7.32;;;10.20;99.90;;;;;;5100081;28;20107;-82
2023/01/07 07:55:52;;;;;;;11.18;7.50;;;10.20;99.90;;;;;;5099487;28;20185;-82
2023/01/07 07:58:18;;;;;;;10.60;7.85;;;10.20;99.90;;;;;;5103297;28;20091;-82
2023/01/07 08:00:44;;;;;;;9.90;7.07;;;10.20;99.90;;;;;;5096326;28;20067;-81
2023/01/07 08:03:10;;;;;;;10.32;7.18;;;10.20;99.90;;;;;;5092623;28;20036;-80
2023/01/07 08:05:40;;;;;;;10.48;7.63;;;10.20;99.90;;;;;;5108038;28;20092;-79
2023/01/07 08:08:08;;;;;;;10.05;7.30;;;10.10;99.90;;;;;;5103777;28;20036;-82
2023/01/07 08:10:34;;;;;;;11.40;7.60;;;10.20;99.90;;;;;;5101629;28;20090;-82
2023/01/07 08:13:00;;;;;;;12.15;7.72;;;10.20;99.90;;;;;;5109710;28;20481;-82
2023/01/07 08:15:26;;;;;;;11.18;7.75;;;10.20;99.90;;;;;;5106105;28;20118;-82
2023/01/07 08:17:59;;;;;;;9.98;7.78;;;10.20;99.90;;;;;;5101560;28;20556;-80
2023/01/07 08:20:26;;;;;;;11.82;7.82;;;10.20;99.90;;;;;;5100753;28;20023;-80
2023/01/07 08:22:51;;;;;;;10.00;8.00;;;10.20;99.90;;;;;;5097898;27;20044;-80
2023/01/07 08:25:17;;;;;;;11.00;7.80;;;10.10;99.90;;;;;;5122554;27;20452;-80
2023/01/07 08:27:43;;;;;;;11.38;7.93;;;10.20;99.90;;;;;;5108846;27;20084;-81
2023/01/07 08:30:09;;;;;;;12.05;8.50;;;10.10;99.90;;;;;;5110699;27;20477;-81
2023/01/07 08:32:36;;;;;;;10.75;8.45;;;10.10;99.90;;;;;;5135597;27;20046;-82
2023/01/07 08:35:01;;;;;;;10.82;8.25;;;10.00;99.90;;;;;;5130763;27;20118;-80
2023/01/07 08:37:29;;;;;;;10.75;8.43;;;10.00;99.90;;;;;;5124743;27;20255;-80
2023/01/07 08:39:55;;;;;;;9.95;8.40;;;9.90;99.90;;;;;;5126302;27;20086;-80
2023/01/07 08:42:20;;;;;;;13.07;8.68;;;9.90;99.90;;;;;;5127150;27;20063;-79
2023/01/07 08:44:46;;;;;;;11.15;8.52;;;9.90;99.90;;;;;;5124403;27;20066;-79
2023/01/07 08:47:11;;;;;;;12.02;8.32;;;9.80;99.90;;;;;;5125334;27;20464;-81
2023/01/07 08:49:37;;;;;;;10.52;8.23;;;9.80;99.90;;;;;;5134057;27;20039;-80
2023/01/07 08:52:03;;;;;;;11.10;8.05;;;9.80;99.90;;;;;;5109072;27;20078;-81
2023/01/07 08:54:29;;;;;;;11.30;8.40;;;9.80;99.90;;;;;;5100594;27;20118;-80
2023/01/07 08:56:54;;;;;;;11.40;8.10;;;9.80;99.90;;;;;;5126263;27;20039;-80
2023/01/07 08:59:20;;;;;;;11.55;8.15;;;9.80;99.90;;;;;;5099792;28;20044;-80
2023/01/07 09:01:45;;;;;;;10.57;8.10;;;9.80;99.90;;;;;;5113540;27;20111;-80
2023/01/07 09:04:11;;;;;;;10.15;7.75;;;9.70;99.90;;;;;;5128617;27;20071;-80
2023/01/07 09:06:37;;;;;;;10.65;7.63;;;9.80;99.90;;;;;;5129475;27;20100;-80
2023/01/07 09:09:02;;;;;;;10.20;7.63;;;9.80;99.90;;;;;;5104653;28;20480;-79
2023/01/07 09:11:28;;;;;;;10.25;6.78;;;9.80;99.90;;;;;;5112234;27;20039;-79
2023/01/07 09:13:54;;;;;;;10.02;7.40;;;9.80;99.90;;;;;;5103603;28;20075;-83
2023/01/07 09:16:19;;;;;;;10.73;7.28;;;9.80;99.90;;;;;;5094613;28;20036;-80
2023/01/07 09:18:45;;;;;;;9.43;6.72;;;9.80;99.90;;;;;;5098082;27;20103;-78
2023/01/07 09:21:11;;;;;;;10.45;7.05;;;9.80;99.90;;;;;;5121642;27;20146;-80
2023/01/07 09:23:36;;;;;;;8.70;6.95;;;9.80;99.90;;;;;;5112940;27;20047;-78
2023/01/07 09:26:02;;;;;;;10.27;6.97;;;9.80;99.90;;;;;;5113320;27;20043;-78
2023/01/07 09:28:28;;;;;;;11.38;7.20;;;9.80;99.90;;;;;;5130824;27;20038;-78
2023/01/07 09:30:53;;;;;;;10.70;7.25;;;9.80;99.90;;;;;;5112407;27;20046;-78
2023/01/07 09:33:19;;;;;;;10.57;7.43;;;9.80;99.90;;;;;;5117518;27;20038;-79
2023/01/07 09:35:45;;;;;;;10.10;6.90;;;9.80;99.90;;;;;;5116231;27;20380;-78
2023/01/07 09:38:10;;;;;;;9.73;6.97;;;9.80;99.90;;;;;;5142024;27;20063;-78
2023/01/07 09:40:41;;;;;;;9.00;5.97;;;9.80;99.90;;;;;;5099948;27;20383;-80
2023/01/07 09:43:39;;;;;;;9.45;6.35;;;9.90;99.90;;;;;;5105694;28;20483;-80
2023/01/07 09:46:08;;;;;;;8.88;5.97;;;9.90;99.90;;;;;;5112182;27;20160;-80
2023/01/07 09:48:36;;;;;;;9.00;5.93;;;9.90;99.90;;;;;;5149132;27;20050;-80
2023/01/07 09:51:08;;;;;;;8.43;6.20;;;9.90;99.90;;;;;;5114252;27;20641;-81
2023/01/07 09:53:45;;;;;;;8.25;5.80;;;9.90;99.90;;;;;;5106241;27;20085;-79
2023/01/07 09:56:23;;;;;;;9.07;5.88;;;9.90;99.90;;;;;;5109224;27;20042;-78
2023/01/07 09:58:50;;;;;;;9.40;5.95;;;10.00;99.90;;;;;;5130760;27;20068;-79
2023/01/07 10:01:36;;;;;;;9.13;5.88;;;10.00;99.90;;;;;;5110529;27;20485;-79
2023/01/07 10:04:13;;;;;;;8.90;5.60;;;10.00;99.90;;;;;;5108504;27;20031;-78
2023/01/07 10:06:44;;;;;;;8.05;5.20;;;10.10;99.90;;;;;;5130589;27;20087;-79
2023/01/07 10:09:16;;;;;;;8.60;5.43;;;10.10;99.90;;;;;;5123793;27;20042;-79
2023/01/07 10:12:03;;;;;;;7.88;5.35;;;10.20;99.90;;;;;;5104343;27;20063;-79
2023/01/07 10:14:47;;;;;;;8.32;4.68;;;10.20;99.90;;;;;;5115666;27;20069;-79
2023/01/07 10:17:38;;;;;;;7.38;4.57;;;10.30;99.90;;;;;;5133364;27;20046;-81
2023/01/07 10:20:33;;;;;;;7.88;4.22;;;10.40;99.90;;;;;;5125609;27;20206;-80
2023/01/07 10:23:09;;;;;;;7.63;4.10;;;10.40;99.90;;;;;;5095525;28;20053;-79
2023/01/07 10:25:44;;;;;;;7.68;3.95;;;10.50;99.90;;;;;;5119375;27;20049;-79
2023/01/07 10:28:20;;;;;;;6.75;3.53;;;10.50;99.90;;;;;;5134311;27;20039;-80
2023/01/07 10:30:50;;;;;;;6.82;3.78;;;10.60;99.90;;;;;;5091063;28;20088;-80
2023/01/07 10:33:24;;;;;;;6.00;3.20;;;10.60;99.90;;;;;;5130458;27;20093;-80
2023/01/07 10:35:56;;;;;;;6.22;3.40;;;10.70;99.90;;;;;;5112320;27;20050;-80
2023/01/07 10:38:23;;;;;;;6.50;3.22;;;10.70;99.90;;;;;;5101753;27;20400;-80
2023/01/07 10:40:55;;;;;;;7.22;3.40;;;10.70;99.90;;;;;;5113217;27;20036;-79
2023/01/07 10:43:39;;;;;;;8.43;3.65;;;10.70;99.90;;;;;;5101040;27;20114;-80
2023/01/07 10:46:23;;;;;;;6.15;3.30;;;10.70;99.90;;;;;;5125374;27;20031;-79
2023/01/07 10:49:33;;;;;;;5.40;3.15;;;10.80;99.90;;;;;;5130197;27;20031;-81
2023/01/07 10:52:31;;;;;;;6.25;3.38;;;10.80;99.90;;;;;;5101494;27;20135;-80
2023/01/07 10:55:26;;;;;;;6.45;3.30;;;10.80;99.90;;;;;;5111191;28;20100;-79
2023/01/07 10:57:51;;;;;;;6.05;3.00;;;10.90;99.90;;;;;;5128001;27;20039;-80
2023/01/07 11:00:18;;;;;;;6.07;3.40;;;10.90;99.90;;;;;;5125837;27;20479;-80
2023/01/07 11:03:06;;;;;;;6.57;3.30;;;10.90;99.90;;;;;;5113196;27;20563;-79
2023/01/07 11:05:37;;;;;;;5.85;3.20;;;10.90;99.90;;;;;;5133648;27;20092;-80
2023/01/07 11:08:03;;;;;;;;;;;10.90;99.90;;;;;;5113966;27;20103;-79
2023/01/07 11:10:34;;;;;;;7.15;3.35;;;10.90;99.90;;;;;;5100350;27;19915;-79
2023/01/07 11:13:05;;;;;;;6.50;3.42;;;11.00;99.90;;;;;;5109769;27;20114;-79
2023/01/07 11:15:42;;;;;;;6.78;3.30;;;10.90;99.90;;;;;;5131310;27;20597;-80
2023/01/07 11:18:18;;;;;;;7.07;3.60;;;11.00;99.90;;;;;;5124690;27;20039;-80
2023/01/07 11:20:53;;;;;;;6.95;3.25;;;10.90;99.90;;;;;;5126748;27;20133;-80
2023/01/07 11:23:28;;;;;;;5.55;3.08;;;10.90;99.90;;;;;;5129629;27;20051;-80
2023/01/07 11:26:11;;;;;;;5.43;3.10;;;10.90;99.90;;;;;;5112688;27;20088;-80
2023/01/07 11:29:01;;;;;;;6.68;3.40;;;10.90;99.90;;;;;;5110224;27;20106;-79
2023/01/07 11:31:47;;;;;;;5.38;2.67;;;10.90;99.90;;;;;;5126584;27;20506;-80
2023/01/07 11:34:25;;;;;;;5.10;2.90;;;10.90;99.90;;;;;;5092674;28;20047;-80
2023/01/07 11:36:51;;;;;;;6.82;3.45;;;10.90;99.90;;;;;;5107549;27;20110;-80
2023/01/07 11:39:22;;;;;;;6.38;3.10;;;11.00;99.90;;;;;;5112177;27;20101;-81
2023/01/07 11:41:57;;;;;;;5.45;3.00;;;11.00;99.90;;;;;;5111408;27;20499;-79
2023/01/07 11:44:23;;;;;;;5.40;2.90;;;11.00;99.90;;;;;;5125074;27;20067;-80
2023/01/07 11:46:49;;;;;;;6.80;2.97;;;11.00;99.90;;;;;;5113450;28;20460;-80
2023/01/07 11:49:25;;;;;;;5.60;3.00;;;11.00;99.90;;;;;;5132333;28;20034;-80
2023/01/07 11:51:51;;;;;;;5.38;2.47;;;11.00;99.90;;;;;;5113915;28;20039;-79
2023/01/07 11:54:25;;;;;;;6.18;2.72;;;11.00;99.90;;;;;;5145035;27;20118;-80
2023/01/07 11:56:52;;;;;;;5.45;2.60;;;11.10;99.90;;;;;;5085337;28;20036;-80
2023/01/07 11:59:18;;;;;;;5.57;2.85;;;11.10;99.90;;;;;;5126269;28;20039;-81
2023/01/07 12:01:45;;;;;;;5.18;2.60;;;11.10;99.90;;;;;;5112532;28;20122;-81
2023/01/07 12:04:44;;;;;;;6.82;3.08;;;11.10;99.90;;;;;;5138635;27;20074;-81
2023/01/07 12:07:15;;;;;;;5.97;2.85;;;11.20;99.90;;;;;;5108587;28;20499;-80
2023/01/07 12:09:43;;;;;;;5.32;2.38;;;11.20;99.90;;;;;;5111709;28;20039;-80
2023/01/07 12:12:35;;;;;;;6.43;2.67;;;11.20;99.90;;;;;;5111123;28;20096;-80
2023/01/07 12:15:05;;;;;;;5.50;2.70;;;11.20;99.90;;;;;;5091868;28;20049;-80
2023/01/07 12:17:33;;;;;;;4.80;2.60;;;11.20;99.90;;;;;;5104554;28;20046;-79
2023/01/07 12:20:18;;;;;;;4.90;2.60;;;11.20;99.90;;;;;;5133168;27;20044;-79
2023/01/07 12:23:28;;;;;;;5.43;2.80;;;11.20;99.90;;;;;;5097119;28;20061;-79
2023/01/07 12:26:00;;;;;;;4.07;2.47;;;11.20;99.90;;;;;;5140287;27;20058;-79
2023/01/07 12:28:58;;;;;;;5.07;2.58;;;11.10;99.90;;;;;;5092317;28;20031;-79
2023/01/07 12:32:01;;;;;;;5.05;2.50;;;11.00;99.90;;;;;;5089125;28;20063;-82
2023/01/07 12:34:50;;;;;;;5.15;2.50;;;11.00;99.90;;;;;;5129842;28;20031;-81
2023/01/07 12:37:26;;;;;;;4.95;2.70;;;11.00;99.90;;;;;;5099434;27;20042;-80
2023/01/07 12:40:01;;;;;;;5.57;2.50;;;10.90;99.90;;;;;;5125104;28;20043;-81
2023/01/07 12:42:33;;;;;;;5.65;2.80;;;11.00;99.90;;;;;;5122893;27;20102;-82
2023/01/07 12:45:04;;;;;;;6.05;2.50;;;11.00;99.90;;;;;;5104484;28;20100;-81
2023/01/07 12:47:40;;;;;;;4.88;2.60;;;11.00;99.90;;;;;;5122617;27;20042;-82
2023/01/07 12:50:24;;;;;;;5.75;2.53;;;11.10;99.90;;;;;;5123133;27;20039;-82
2023/01/07 12:53:04;;;;;;;5.15;2.53;;;11.10;99.90;;;;;;5125012;27;20031;-82